EZY4311 LFLL-LFBD
Flight info
| Callsign | EZY4311 |
|---|---|
| Flight time | 0h 46m |
| Altitude | 28000 |
| Route | BELEP H38 TIS/N0438F270 DCT LMG |
| Aircraft | A319/M-SDE3FGHIRWY/LB1 |
Departure
| Time | 2026-05-09 01:44 |
|---|---|
| Airport | Lyon Saint-Exupéry Airport (LFLL) |
Arrival
| Time | 2026-05-09 02:31 |
|---|---|
| Airport | Bordeaux–Mérignac Airport (LFBD) |
| Time | Latitude | Longitude | Altitude | Speed | Heading |
|---|---|---|---|---|---|
| 2026-05-09 01:21 | 45.71750 | 5.08249 | 800 ft | 0 kts | 118° |
| 2026-05-09 01:22 | 45.71750 | 5.08248 | 800 ft | 0 kts | 118° |
| 2026-05-09 01:34 | 45.71761 | 5.08217 | 799 ft | 4 kts | 113° |
| 2026-05-09 01:34 | 45.71770 | 5.08180 | 798 ft | 4 kts | 100° |
| 2026-05-09 01:34 | 45.71770 | 5.08145 | 798 ft | 4 kts | 58° |
| 2026-05-09 01:34 | 45.71761 | 5.08131 | 798 ft | 1 kts | 31° |
| 2026-05-09 01:35 | 45.71760 | 5.08130 | 798 ft | 0 kts | 31° |
| 2026-05-09 01:37 | 45.71764 | 5.08134 | 797 ft | 4 kts | 31° |
| 2026-05-09 01:38 | 45.71838 | 5.08180 | 797 ft | 14 kts | 17° |
| 2026-05-09 01:38 | 45.71933 | 5.08218 | 797 ft | 15 kts | 12° |
| 2026-05-09 01:38 | 45.72034 | 5.08255 | 797 ft | 15 kts | 15° |
| 2026-05-09 01:38 | 45.72135 | 5.08299 | 798 ft | 15 kts | 17° |
| 2026-05-09 01:39 | 45.72237 | 5.08328 | 798 ft | 15 kts | 29° |
| 2026-05-09 01:39 | 45.72308 | 5.08416 | 799 ft | 14 kts | 3° |
| 2026-05-09 01:39 | 45.72409 | 5.08406 | 797 ft | 16 kts | 355° |
| 2026-05-09 01:39 | 45.72525 | 5.08392 | 796 ft | 17 kts | 355° |
| 2026-05-09 01:40 | 45.72653 | 5.08376 | 792 ft | 20 kts | 355° |
| 2026-05-09 01:40 | 45.72796 | 5.08358 | 791 ft | 21 kts | 355° |
| 2026-05-09 01:40 | 45.72948 | 5.08339 | 789 ft | 23 kts | 355° |
| 2026-05-09 01:40 | 45.73115 | 5.08317 | 786 ft | 25 kts | 355° |
| 2026-05-09 01:41 | 45.73292 | 5.08296 | 783 ft | 26 kts | 355° |
| 2026-05-09 01:41 | 45.73479 | 5.08277 | 780 ft | 28 kts | 354° |
| 2026-05-09 01:41 | 45.73677 | 5.08251 | 778 ft | 29 kts | 354° |
| 2026-05-09 01:41 | 45.73884 | 5.08229 | 776 ft | 30 kts | 356° |
| 2026-05-09 01:42 | 45.74094 | 5.08238 | 772 ft | 32 kts | 13° |
| 2026-05-09 01:42 | 45.74310 | 5.08308 | 772 ft | 32 kts | 13° |
| 2026-05-09 01:42 | 45.74530 | 5.08384 | 770 ft | 33 kts | 13° |
| 2026-05-09 01:42 | 45.74649 | 5.08545 | 768 ft | 23 kts | 99° |
| 2026-05-09 01:43 | 45.74571 | 5.08609 | 770 ft | 0 kts | 175° |
| 2026-05-09 01:44 | 45.74440 | 5.08626 | 772 ft | 57 kts | 175° |
| 2026-05-09 01:44 | 45.73781 | 5.08704 | 775 ft | 129 kts | 175° |
| 2026-05-09 01:44 | 45.72721 | 5.08834 | 991 ft | 163 kts | 175° |
| 2026-05-09 01:44 | 45.71630 | 5.08958 | 1826 ft | 157 kts | 176° |
| 2026-05-09 01:45 | 45.70511 | 5.09083 | 2490 ft | 166 kts | 176° |
| 2026-05-09 01:45 | 45.69286 | 5.09229 | 2913 ft | 188 kts | 176° |
| 2026-05-09 01:45 | 45.67909 | 5.09398 | 3304 ft | 211 kts | 175° |
| 2026-05-09 01:45 | 45.66403 | 5.09587 | 4070 ft | 221 kts | 175° |
| 2026-05-09 01:46 | 45.64865 | 5.09781 | 5092 ft | 222 kts | 175° |
| 2026-05-09 01:46 | 45.63301 | 5.09973 | 5996 ft | 231 kts | 175° |
| 2026-05-09 01:46 | 45.61668 | 5.09761 | 6699 ft | 250 kts | 201° |
| 2026-05-09 01:46 | 45.60311 | 5.08114 | 7406 ft | 269 kts | 237° |
| 2026-05-09 01:47 | 45.59849 | 5.05495 | 8363 ft | 282 kts | 269° |
| 2026-05-09 01:47 | 45.60004 | 5.02948 | 9297 ft | 285 kts | 270° |
| 2026-05-09 01:47 | 45.59729 | 5.00152 | 10244 ft | 287 kts | 252° |
| 2026-05-09 01:47 | 45.59014 | 4.97383 | 10690 ft | 309 kts | 244° |
| 2026-05-09 01:48 | 45.58035 | 4.94525 | 11072 ft | 331 kts | 240° |
| 2026-05-09 01:48 | 45.56940 | 4.91586 | 11783 ft | 339 kts | 240° |
| 2026-05-09 01:48 | 45.55836 | 4.88592 | 12641 ft | 343 kts | 242° |
| 2026-05-09 01:48 | 45.55189 | 4.85300 | 13462 ft | 353 kts | 265° |
| 2026-05-09 01:49 | 45.55639 | 4.81825 | 14255 ft | 365 kts | 291° |
| 2026-05-09 01:49 | 45.57064 | 4.78789 | 15017 ft | 373 kts | 307° |
| 2026-05-09 01:49 | 45.58780 | 4.75989 | 15783 ft | 375 kts | 308° |
| 2026-05-09 01:49 | 45.60332 | 4.72987 | 16522 ft | 377 kts | 302° |
| 2026-05-09 01:50 | 45.61707 | 4.69802 | 17280 ft | 378 kts | 296° |
| 2026-05-09 01:50 | 45.62884 | 4.66427 | 18036 ft | 380 kts | 292° |
| 2026-05-09 01:50 | 45.63940 | 4.62943 | 18695 ft | 384 kts | 290° |
| 2026-05-09 01:50 | 45.64954 | 4.59401 | 19331 ft | 387 kts | 290° |
| 2026-05-09 01:51 | 45.65980 | 4.55823 | 19990 ft | 390 kts | 290° |
| 2026-05-09 01:51 | 45.67038 | 4.52234 | 20645 ft | 393 kts | 290° |
| 2026-05-09 01:51 | 45.68132 | 4.48634 | 21273 ft | 396 kts | 291° |
| 2026-05-09 01:51 | 45.69254 | 4.45017 | 21879 ft | 400 kts | 291° |
| 2026-05-09 01:52 | 45.70399 | 4.41360 | 22379 ft | 406 kts | 291° |
| 2026-05-09 01:52 | 45.71562 | 4.37652 | 22938 ft | 410 kts | 291° |
| 2026-05-09 01:52 | 45.72734 | 4.33910 | 23482 ft | 414 kts | 291° |
| 2026-05-09 01:52 | 45.73916 | 4.30135 | 23975 ft | 417 kts | 291° |
| 2026-05-09 01:53 | 45.75102 | 4.26335 | 24429 ft | 420 kts | 291° |
| 2026-05-09 01:53 | 45.76276 | 4.22552 | 24892 ft | 422 kts | 291° |
| 2026-05-09 01:53 | 45.77483 | 4.18645 | 25350 ft | 425 kts | 291° |
| 2026-05-09 01:53 | 45.78655 | 4.14811 | 25776 ft | 427 kts | 290° |
| 2026-05-09 01:54 | 45.79563 | 4.10712 | 26228 ft | 427 kts | 281° |
| 2026-05-09 01:54 | 45.80216 | 4.06550 | 26673 ft | 429 kts | 280° |
| 2026-05-09 01:54 | 45.80874 | 4.02368 | 27106 ft | 431 kts | 280° |
| 2026-05-09 01:54 | 45.81526 | 3.98219 | 27531 ft | 434 kts | 280° |
| 2026-05-09 01:55 | 45.82191 | 3.93994 | 27927 ft | 436 kts | 280° |
| 2026-05-09 01:55 | 45.82859 | 3.89749 | 28044 ft | 436 kts | 281° |
| 2026-05-09 01:55 | 45.84183 | 3.81295 | 28051 ft | 434 kts | 280° |
| 2026-05-09 01:56 | 45.85500 | 3.72844 | 28052 ft | 434 kts | 280° |
| 2026-05-09 01:56 | 45.86800 | 3.64393 | 28052 ft | 434 kts | 280° |
| 2026-05-09 01:57 | 45.88005 | 3.55927 | 28046 ft | 432 kts | 275° |
| 2026-05-09 01:57 | 45.88067 | 3.47356 | 28048 ft | 430 kts | 266° |
| 2026-05-09 01:58 | 45.87921 | 3.38787 | 28050 ft | 430 kts | 267° |
| 2026-05-09 01:58 | 45.87778 | 3.30215 | 28051 ft | 429 kts | 266° |
| 2026-05-09 01:59 | 45.87623 | 3.21655 | 28054 ft | 429 kts | 266° |
| 2026-05-09 01:59 | 45.87467 | 3.13092 | 28060 ft | 429 kts | 266° |
| 2026-05-09 02:00 | 45.87309 | 3.04538 | 28065 ft | 428 kts | 266° |
| 2026-05-09 02:00 | 45.87139 | 2.96013 | 28066 ft | 427 kts | 266° |
| 2026-05-09 02:01 | 45.86963 | 2.87494 | 28065 ft | 427 kts | 266° |
| 2026-05-09 02:01 | 45.86783 | 2.78983 | 28056 ft | 426 kts | 266° |
| 2026-05-09 02:02 | 45.86594 | 2.70487 | 28064 ft | 426 kts | 266° |
| 2026-05-09 02:02 | 45.86402 | 2.62006 | 28063 ft | 425 kts | 266° |
| 2026-05-09 02:03 | 45.86205 | 2.53535 | 28061 ft | 424 kts | 266° |
| 2026-05-09 02:03 | 45.86005 | 2.45080 | 28054 ft | 424 kts | 266° |
| 2026-05-09 02:04 | 45.85797 | 2.36630 | 28050 ft | 424 kts | 266° |
| 2026-05-09 02:04 | 45.85574 | 2.28189 | 28059 ft | 422 kts | 266° |
| 2026-05-09 02:05 | 45.85349 | 2.19796 | 28058 ft | 421 kts | 266° |
| 2026-05-09 02:05 | 45.85120 | 2.11420 | 28055 ft | 420 kts | 266° |
| 2026-05-09 02:06 | 45.84928 | 2.04475 | 28042 ft | 419 kts | 265° |
| 2026-05-09 02:07 | 45.84567 | 1.91952 | 28046 ft | 418 kts | 265° |
| 2026-05-09 02:07 | 45.84318 | 1.83627 | 28038 ft | 418 kts | 265° |
| 2026-05-09 02:08 | 45.84065 | 1.75300 | 28032 ft | 418 kts | 265° |
| 2026-05-09 02:08 | 45.83805 | 1.66992 | 28013 ft | 417 kts | 265° |
| 2026-05-09 02:09 | 45.83539 | 1.58680 | 28008 ft | 417 kts | 265° |
| 2026-05-09 02:09 | 45.83268 | 1.50371 | 28001 ft | 417 kts | 265° |
| 2026-05-09 02:09 | 45.83131 | 1.46218 | 28000 ft | 417 kts | 265° |
| 2026-05-09 02:10 | 45.82995 | 1.42062 | 27993 ft | 417 kts | 265° |
| 2026-05-09 02:10 | 45.82858 | 1.37951 | 27990 ft | 418 kts | 265° |
| 2026-05-09 02:10 | 45.82714 | 1.33742 | 27990 ft | 418 kts | 265° |
| 2026-05-09 02:10 | 45.82567 | 1.29589 | 27989 ft | 418 kts | 265° |
| 2026-05-09 02:11 | 45.82418 | 1.25424 | 27990 ft | 418 kts | 265° |
| 2026-05-09 02:11 | 45.82270 | 1.21268 | 27990 ft | 418 kts | 265° |
| 2026-05-09 02:11 | 45.82121 | 1.17111 | 28003 ft | 418 kts | 265° |
| 2026-05-09 02:11 | 45.81970 | 1.12956 | 27998 ft | 418 kts | 264° |
| 2026-05-09 02:12 | 45.81804 | 1.08799 | 27992 ft | 417 kts | 262° |
| 2026-05-09 02:12 | 45.81295 | 1.04716 | 27989 ft | 415 kts | 253° |
| 2026-05-09 02:12 | 45.80311 | 1.00841 | 27986 ft | 413 kts | 244° |
| 2026-05-09 02:12 | 45.78897 | 0.97273 | 27985 ft | 412 kts | 234° |
| 2026-05-09 02:13 | 45.77213 | 0.93951 | 27983 ft | 412 kts | 233° |
| 2026-05-09 02:13 | 45.75545 | 0.90674 | 27968 ft | 412 kts | 233° |
| 2026-05-09 02:13 | 45.73858 | 0.87357 | 27970 ft | 412 kts | 233° |
| 2026-05-09 02:13 | 45.72172 | 0.84042 | 27971 ft | 412 kts | 233° |
| 2026-05-09 02:14 | 45.70483 | 0.80728 | 27974 ft | 412 kts | 233° |
| 2026-05-09 02:14 | 45.68793 | 0.77422 | 27985 ft | 412 kts | 233° |
| 2026-05-09 02:14 | 45.67103 | 0.74120 | 27984 ft | 412 kts | 233° |
| 2026-05-09 02:14 | 45.65411 | 0.70813 | 27984 ft | 412 kts | 233° |
| 2026-05-09 02:15 | 45.63718 | 0.67507 | 27985 ft | 412 kts | 233° |
| 2026-05-09 02:15 | 45.62031 | 0.64215 | 27764 ft | 410 kts | 233° |
| 2026-05-09 02:15 | 45.60332 | 0.60908 | 26337 ft | 419 kts | 233° |
| 2026-05-09 02:15 | 45.58599 | 0.57538 | 25475 ft | 418 kts | 233° |
| 2026-05-09 02:16 | 45.56910 | 0.54256 | 25108 ft | 404 kts | 233° |
| 2026-05-09 02:16 | 45.55258 | 0.51049 | 24438 ft | 399 kts | 233° |
| 2026-05-09 02:16 | 45.53621 | 0.47880 | 23777 ft | 395 kts | 233° |
| 2026-05-09 02:16 | 45.52002 | 0.44747 | 23060 ft | 391 kts | 233° |
| 2026-05-09 02:17 | 45.50400 | 0.41648 | 22441 ft | 385 kts | 233° |
| 2026-05-09 02:17 | 45.48817 | 0.38592 | 21853 ft | 380 kts | 233° |
| 2026-05-09 02:17 | 45.47252 | 0.35581 | 21262 ft | 377 kts | 233° |
| 2026-05-09 02:17 | 45.45695 | 0.32593 | 20720 ft | 374 kts | 233° |
| 2026-05-09 02:18 | 45.44153 | 0.29630 | 20187 ft | 371 kts | 233° |
| 2026-05-09 02:18 | 45.42619 | 0.26681 | 19563 ft | 375 kts | 232° |
| 2026-05-09 02:18 | 45.41053 | 0.23673 | 18748 ft | 381 kts | 232° |
| 2026-05-09 02:18 | 45.39477 | 0.20647 | 17933 ft | 385 kts | 232° |
| 2026-05-09 02:19 | 45.37866 | 0.17568 | 17097 ft | 386 kts | 232° |
| 2026-05-09 02:19 | 45.36261 | 0.14499 | 16309 ft | 388 kts | 232° |
| 2026-05-09 02:19 | 45.34651 | 0.11416 | 15439 ft | 391 kts | 232° |
| 2026-05-09 02:19 | 45.33047 | 0.08306 | 14892 ft | 386 kts | 233° |
| 2026-05-09 02:20 | 45.31478 | 0.05244 | 14292 ft | 382 kts | 233° |
| 2026-05-09 02:20 | 45.29929 | 0.02216 | 13472 ft | 374 kts | 233° |
| 2026-05-09 02:20 | 45.28406 | -0.00760 | 12281 ft | 370 kts | 233° |
| 2026-05-09 02:20 | 45.26912 | -0.03674 | 11506 ft | 357 kts | 232° |
| 2026-05-09 02:21 | 45.25512 | -0.06402 | 11335 ft | 327 kts | 232° |
| 2026-05-09 02:21 | 45.24224 | -0.08915 | 11207 ft | 302 kts | 232° |
| 2026-05-09 02:21 | 45.23022 | -0.11254 | 10834 ft | 289 kts | 232° |
| 2026-05-09 02:21 | 45.21847 | -0.13537 | 10275 ft | 284 kts | 231° |
| 2026-05-09 02:22 | 45.20695 | -0.15768 | 10133 ft | 280 kts | 231° |
| 2026-05-09 02:22 | 45.19538 | -0.17998 | 10016 ft | 281 kts | 231° |
| 2026-05-09 02:22 | 45.18378 | -0.20228 | 9743 ft | 282 kts | 231° |
| 2026-05-09 02:22 | 45.17211 | -0.22473 | 9044 ft | 281 kts | 231° |
| 2026-05-09 02:23 | 45.15930 | -0.24508 | 8470 ft | 275 kts | 224° |
| 2026-05-09 02:23 | 45.14593 | -0.26436 | 7919 ft | 274 kts | 224° |
| 2026-05-09 02:23 | 45.13260 | -0.28355 | 7353 ft | 273 kts | 224° |
| 2026-05-09 02:23 | 45.11930 | -0.30268 | 6785 ft | 272 kts | 224° |
| 2026-05-09 02:24 | 45.10607 | -0.32173 | 6232 ft | 271 kts | 224° |
| 2026-05-09 02:24 | 45.09307 | -0.34045 | 5671 ft | 269 kts | 224° |
| 2026-05-09 02:24 | 45.07990 | -0.35917 | 5146 ft | 268 kts | 223° |
| 2026-05-09 02:24 | 45.06654 | -0.37792 | 4598 ft | 266 kts | 223° |
| 2026-05-09 02:25 | 45.05358 | -0.39602 | 4102 ft | 265 kts | 223° |
| 2026-05-09 02:25 | 45.04053 | -0.41425 | 3606 ft | 262 kts | 223° |
| 2026-05-09 02:25 | 45.02810 | -0.43166 | 3498 ft | 238 kts | 222° |
| 2026-05-09 02:25 | 45.01692 | -0.44735 | 3438 ft | 216 kts | 222° |
| 2026-05-09 02:26 | 45.00658 | -0.46181 | 3381 ft | 207 kts | 222° |
| 2026-05-09 02:26 | 44.99640 | -0.47601 | 3300 ft | 205 kts | 222° |
| 2026-05-09 02:26 | 44.98623 | -0.49017 | 3210 ft | 205 kts | 222° |
| 2026-05-09 02:26 | 44.97646 | -0.50380 | 3121 ft | 193 kts | 222° |
| 2026-05-09 02:27 | 44.96704 | -0.51696 | 3035 ft | 188 kts | 221° |
| 2026-05-09 02:27 | 44.95783 | -0.52990 | 3009 ft | 186 kts | 222° |
| 2026-05-09 02:27 | 44.94875 | -0.54291 | 3009 ft | 186 kts | 223° |
| 2026-05-09 02:27 | 44.93972 | -0.55598 | 2912 ft | 186 kts | 223° |
| 2026-05-09 02:28 | 44.93072 | -0.56900 | 2712 ft | 184 kts | 223° |
| 2026-05-09 02:28 | 44.92178 | -0.58187 | 2471 ft | 183 kts | 222° |
| 2026-05-09 02:28 | 44.91290 | -0.59463 | 2222 ft | 181 kts | 221° |
| 2026-05-09 02:28 | 44.90416 | -0.60718 | 2040 ft | 174 kts | 221° |
| 2026-05-09 02:29 | 44.89576 | -0.61925 | 1765 ft | 169 kts | 221° |
| 2026-05-09 02:29 | 44.88771 | -0.63080 | 1528 ft | 162 kts | 221° |
| 2026-05-09 02:29 | 44.88004 | -0.64181 | 1328 ft | 152 kts | 221° |
| 2026-05-09 02:29 | 44.87283 | -0.65214 | 1120 ft | 143 kts | 221° |
| 2026-05-09 02:30 | 44.86608 | -0.66180 | 936 ft | 134 kts | 221° |
| 2026-05-09 02:30 | 44.85951 | -0.67121 | 784 ft | 139 kts | 223° |
| 2026-05-09 02:30 | 44.85260 | -0.68107 | 600 ft | 143 kts | 223° |
| 2026-05-09 02:30 | 44.84561 | -0.69107 | 402 ft | 144 kts | 224° |
| 2026-05-09 02:31 | 44.83869 | -0.70105 | 212 ft | 143 kts | 221° |
| 2026-05-09 02:31 | 44.83224 | -0.71025 | 170 ft | 108 kts | 225° |
| 2026-05-09 02:31 | 44.82897 | -0.71489 | 168 ft | 37 kts | 225° |
| 2026-05-09 02:31 | 44.82776 | -0.71658 | 172 ft | 27 kts | 225° |
| 2026-05-09 02:32 | 44.82617 | -0.71881 | 173 ft | 34 kts | 225° |
| 2026-05-09 02:32 | 44.82490 | -0.71836 | 171 ft | 28 kts | 122° |
| 2026-05-09 02:32 | 44.82471 | -0.71657 | 170 ft | 18 kts | 45° |
| 2026-05-09 02:32 | 44.82586 | -0.71487 | 170 ft | 30 kts | 43° |
| 2026-05-09 02:33 | 44.82749 | -0.71252 | 169 ft | 35 kts | 47° |
| 2026-05-09 02:33 | 44.82909 | -0.71021 | 170 ft | 32 kts | 45° |
| 2026-05-09 02:33 | 44.83059 | -0.70808 | 169 ft | 30 kts | 45° |
| 2026-05-09 02:33 | 44.83135 | -0.70699 | 168 ft | 0 kts | 45° |
| 2026-05-09 02:34 | 44.83142 | -0.70689 | 168 ft | 4 kts | 45° |
| 2026-05-09 02:34 | 44.83179 | -0.70638 | 167 ft | 9 kts | 45° |
| 2026-05-09 02:34 | 44.83200 | -0.70559 | 167 ft | 9 kts | 115° |
| 2026-05-09 02:34 | 44.83149 | -0.70561 | 167 ft | 9 kts | 221° |
| 2026-05-09 02:35 | 44.83107 | -0.70542 | 168 ft | 8 kts | 130° |
| 2026-05-09 02:35 | 44.83080 | -0.70505 | 168 ft | 2 kts | 135° |
| 2026-05-09 02:35 | 44.83072 | -0.70492 | 168 ft | 0 kts | 134° |